sensor_id;sensor_type;location;lat;lon;timestamp;pressure;altitude;pressure_sealevel;temperature;humidity
57000;BME280;42891;50.006;21.964;2023-06-22T00:01:22;50842.38;;;-146.02;68.86
57000;BME280;42891;50.006;21.964;2023-06-22T00:05:22;50818.34;;;-146.02;69.01
57000;BME280;42891;50.006;21.964;2023-06-22T00:09:22;50850.41;;;-146.02;68.31
57000;BME280;42891;50.006;21.964;2023-06-22T00:13:23;50830.38;;;-146.02;68.04
57000;BME280;42891;50.006;21.964;2023-06-22T00:17:23;50864.44;;;-146.02;68.43
57000;BME280;42891;50.006;21.964;2023-06-22T00:21:24;50848.41;;;-146.02;68.54
57000;BME280;42891;50.006;21.964;2023-06-22T00:25:25;50844.41;;;-146.02;68.31
57000;BME280;42891;50.006;21.964;2023-06-22T00:29:25;50844.41;;;-146.02;68.56
57000;BME280;42891;50.006;21.964;2023-06-22T00:33:26;50830.38;;;-146.02;68.53
57000;BME280;42891;50.006;21.964;2023-06-22T00:37:26;50848.41;;;-146.02;68.61
57000;BME280;42891;50.006;21.964;2023-06-22T00:41:29;50828.38;;;-146.02;68.95
57000;BME280;42891;50.006;21.964;2023-06-22T00:45:30;50816.34;;;-146.02;69.25
57000;BME280;42891;50.006;21.964;2023-06-22T00:49:30;50854.41;;;-146.02;69.82
57000;BME280;42891;50.006;21.964;2023-06-22T00:53:30;50854.41;;;-146.02;70.08
57000;BME280;42891;50.006;21.964;2023-06-22T00:57:35;50818.34;;;-146.02;70.07
57000;BME280;42891;50.006;21.964;2023-06-22T01:01:37;50858.41;;;-146.02;70.81
57000;BME280;42891;50.006;21.964;2023-06-22T01:05:40;50844.41;;;-146.02;71.10
57000;BME280;42891;50.006;21.964;2023-06-22T01:09:57;50850.41;;;-146.02;70.93
57000;BME280;42891;50.006;21.964;2023-06-22T01:14:11;50858.41;;;-146.02;70.59
57000;BME280;42891;50.006;21.964;2023-06-22T01:18:13;50864.44;;;-146.02;70.70
57000;BME280;42891;50.006;21.964;2023-06-22T01:22:17;50854.41;;;-146.02;70.94
57000;BME280;42891;50.006;21.964;2023-06-22T01:26:42;50862.44;;;-146.02;70.98
57000;BME280;42891;50.006;21.964;2023-06-22T01:30:45;50840.38;;;-146.02;71.16
57000;BME280;42891;50.006;21.964;2023-06-22T01:34:47;50818.34;;;-146.02;71.30
57000;BME280;42891;50.006;21.964;2023-06-22T01:38:49;50852.41;;;-146.02;71.46
57000;BME280;42891;50.006;21.964;2023-06-22T01:42:50;50812.34;;;-146.02;71.52
57000;BME280;42891;50.006;21.964;2023-06-22T01:46:52;50880.47;;;-146.02;71.99
57000;BME280;42891;50.006;21.964;2023-06-22T01:50:53;50840.38;;;-146.02;72.08
57000;BME280;42891;50.006;21.964;2023-06-22T01:54:54;50864.44;;;-146.02;72.48
57000;BME280;42891;50.006;21.964;2023-06-22T02:03:26;50872.44;;;-146.02;72.67
57000;BME280;42891;50.006;21.964;2023-06-22T02:07:32;50870.44;;;-146.02;73.56
57000;BME280;42891;50.006;21.964;2023-06-22T02:11:34;50828.38;;;-146.02;73.26
57000;BME280;42891;50.006;21.964;2023-06-22T02:15:36;50834.38;;;-146.02;73.56
57000;BME280;42891;50.006;21.964;2023-06-22T02:19:37;50922.53;;;-146.02;73.17
57000;BME280;42891;50.006;21.964;2023-06-22T02:23:38;50868.44;;;-146.02;73.25
57000;BME280;42891;50.006;21.964;2023-06-22T02:27:38;50840.38;;;-146.02;73.46
57000;BME280;42891;50.006;21.964;2023-06-22T02:31:41;50836.38;;;-146.02;73.38
57000;BME280;42891;50.006;21.964;2023-06-22T02:35:41;50866.44;;;-146.02;73.10
57000;BME280;42891;50.006;21.964;2023-06-22T02:39:45;50850.41;;;-146.02;73.65
57000;BME280;42891;50.006;21.964;2023-06-22T02:43:46;50842.38;;;-146.02;73.71
57000;BME280;42891;50.006;21.964;2023-06-22T02:47:46;50894.50;;;-146.02;74.10
57000;BME280;42891;50.006;21.964;2023-06-22T02:51:48;50856.41;;;-146.02;74.38
57000;BME280;42891;50.006;21.964;2023-06-22T02:55:48;50856.41;;;-146.02;74.33
57000;BME280;42891;50.006;21.964;2023-06-22T02:59:48;50874.44;;;-146.02;74.71
57000;BME280;42891;50.006;21.964;2023-06-22T03:03:49;50882.47;;;-146.02;74.63
57000;BME280;42891;50.006;21.964;2023-06-22T03:07:50;50866.44;;;-146.02;74.91
57000;BME280;42891;50.006;21.964;2023-06-22T03:11:51;50846.41;;;-146.02;74.94
57000;BME280;42891;50.006;21.964;2023-06-22T03:15:51;50870.44;;;-146.02;74.80
57000;BME280;42891;50.006;21.964;2023-06-22T03:19:52;50858.41;;;-146.02;75.03
57000;BME280;42891;50.006;21.964;2023-06-22T03:23:53;50928.56;;;-146.02;74.84
57000;BME280;42891;50.006;21.964;2023-06-22T03:27:53;50860.44;;;-146.02;74.87
57000;BME280;42891;50.006;21.964;2023-06-22T03:31:53;50872.44;;;-146.02;74.71
57000;BME280;42891;50.006;21.964;2023-06-22T03:35:54;50874.44;;;-146.02;74.80
57000;BME280;42891;50.006;21.964;2023-06-22T03:39:54;50842.38;;;-146.02;74.73
57000;BME280;42891;50.006;21.964;2023-06-22T03:43:54;50836.38;;;-146.02;74.79
57000;BME280;42891;50.006;21.964;2023-06-22T03:47:55;50852.41;;;-146.02;74.98
57000;BME280;42891;50.006;21.964;2023-06-22T03:51:55;50864.44;;;-146.02;74.78
57000;BME280;42891;50.006;21.964;2023-06-22T03:55:56;50872.44;;;-146.02;75.23
57000;BME280;42891;50.006;21.964;2023-06-22T03:59:56;50850.41;;;-146.02;75.49
57000;BME280;42891;50.006;21.964;2023-06-22T04:03:57;50884.47;;;-146.02;75.58
57000;BME280;42891;50.006;21.964;2023-06-22T04:07:58;50866.44;;;-146.02;76.21
57000;BME280;42891;50.006;21.964;2023-06-22T04:11:58;50888.47;;;-146.02;76.50
57000;BME280;42891;50.006;21.964;2023-06-22T04:15:58;50868.44;;;-146.02;76.83
57000;BME280;42891;50.006;21.964;2023-06-22T04:20:01;50878.47;;;-146.02;76.95
57000;BME280;42891;50.006;21.964;2023-06-22T04:24:02;50888.47;;;-146.02;77.38
57000;BME280;42891;50.006;21.964;2023-06-22T04:28:02;50878.47;;;-146.02;77.47
57000;BME280;42891;50.006;21.964;2023-06-22T04:32:03;50856.41;;;-146.02;77.36
57000;BME280;42891;50.006;21.964;2023-06-22T04:36:05;50884.47;;;-146.02;77.05
57000;BME280;42891;50.006;21.964;2023-06-22T04:40:06;50840.38;;;-146.02;77.28
57000;BME280;42891;50.006;21.964;2023-06-22T04:44:10;50850.41;;;-146.02;76.92
57000;BME280;42891;50.006;21.964;2023-06-22T04:48:11;50872.44;;;-146.02;77.18
57000;BME280;42891;50.006;21.964;2023-06-22T04:52:16;50862.44;;;-146.02;76.81
57000;BME280;42891;50.006;21.964;2023-06-22T04:56:17;50892.47;;;-146.02;76.93
57000;BME280;42891;50.006;21.964;2023-06-22T05:00:19;50872.44;;;-146.02;77.20
57000;BME280;42891;50.006;21.964;2023-06-22T05:04:19;50864.44;;;-146.02;76.93
57000;BME280;42891;50.006;21.964;2023-06-22T05:08:20;50898.50;;;-146.02;76.97
57000;BME280;42891;50.006;21.964;2023-06-22T05:12:20;50820.34;;;-146.02;77.29
57000;BME280;42891;50.006;21.964;2023-06-22T05:16:22;50870.44;;;-146.02;77.40
57000;BME280;42891;50.006;21.964;2023-06-22T05:20:26;50864.44;;;-146.02;77.65
57000;BME280;42891;50.006;21.964;2023-06-22T05:24:26;50868.44;;;-146.02;78.08
57000;BME280;42891;50.006;21.964;2023-06-22T05:28:26;50854.41;;;-146.02;77.98
57000;BME280;42891;50.006;21.964;2023-06-22T05:32:26;50858.41;;;-146.02;77.92
57000;BME280;42891;50.006;21.964;2023-06-22T05:36:27;50808.34;;;-146.02;78.06
57000;BME280;42891;50.006;21.964;2023-06-22T05:40:27;50848.41;;;-146.02;77.84
57000;BME280;42891;50.006;21.964;2023-06-22T05:44:27;50856.41;;;-146.02;77.82
57000;BME280;42891;50.006;21.964;2023-06-22T05:48:28;50834.38;;;-146.02;78.50
57000;BME280;42891;50.006;21.964;2023-06-22T05:52:28;50878.47;;;-146.02;78.60
57000;BME280;42891;50.006;21.964;2023-06-22T05:56:28;50882.47;;;-146.02;78.08
57000;BME280;42891;50.006;21.964;2023-06-22T06:00:29;50868.44;;;-146.02;77.89
57000;BME280;42891;50.006;21.964;2023-06-22T06:04:29;50886.47;;;-146.02;77.70
57000;BME280;42891;50.006;21.964;2023-06-22T06:08:30;50844.41;;;-146.02;76.74
57000;BME280;42891;50.006;21.964;2023-06-22T06:12:30;50860.44;;;-146.02;77.87
57000;BME280;42891;50.006;21.964;2023-06-22T06:16:31;50848.41;;;-146.02;77.79
57000;BME280;42891;50.006;21.964;2023-06-22T06:20:32;50876.44;;;-146.02;77.57
57000;BME280;42891;50.006;21.964;2023-06-22T06:24:33;50872.44;;;-146.02;77.32
57000;BME280;42891;50.006;21.964;2023-06-22T06:28:33;50840.38;;;-146.02;77.40
57000;BME280;42891;50.006;21.964;2023-06-22T06:32:34;50844.41;;;-146.02;76.86
57000;BME280;42891;50.006;21.964;2023-06-22T06:36:34;50824.34;;;-146.02;77.70
57000;BME280;42891;50.006;21.964;2023-06-22T06:40:34;50856.41;;;-146.02;77.16
57000;BME280;42891;50.006;21.964;2023-06-22T06:44:35;50846.41;;;-146.02;78.16
57000;BME280;42891;50.006;21.964;2023-06-22T06:48:37;50840.38;;;-146.02;77.70
57000;BME280;42891;50.006;21.964;2023-06-22T06:52:38;50866.44;;;-146.02;77.44
57000;BME280;42891;50.006;21.964;2023-06-22T06:56:38;50852.41;;;-146.02;76.85
57000;BME280;42891;50.006;21.964;2023-06-22T07:00:39;50850.41;;;-146.02;76.56
57000;BME280;42891;50.006;21.964;2023-06-22T07:04:39;50856.41;;;-146.02;76.28
57000;BME280;42891;50.006;21.964;2023-06-22T07:08:40;50824.34;;;-146.02;75.65
57000;BME280;42891;50.006;21.964;2023-06-22T07:12:40;50812.34;;;-146.02;73.68
57000;BME280;42891;50.006;21.964;2023-06-22T07:16:41;50816.34;;;-146.02;74.07
57000;BME280;42891;50.006;21.964;2023-06-22T07:20:41;50832.38;;;-146.02;73.12
57000;BME280;42891;50.006;21.964;2023-06-22T07:24:41;50834.38;;;-146.02;72.29
57000;BME280;42891;50.006;21.964;2023-06-22T07:28:42;50854.41;;;-146.02;74.18
57000;BME280;42891;50.006;21.964;2023-06-22T07:32:42;50830.38;;;-146.02;70.77
57000;BME280;42891;50.006;21.964;2023-06-22T07:36:43;50840.38;;;-146.02;69.85
57000;BME280;42891;50.006;21.964;2023-06-22T07:40:45;50844.41;;;-146.02;65.13
57000;BME280;42891;50.006;21.964;2023-06-22T07:44:45;50824.34;;;-146.02;65.93
57000;BME280;42891;50.006;21.964;2023-06-22T07:48:46;50788.28;;;-146.02;63.86
57000;BME280;42891;50.006;21.964;2023-06-22T07:52:46;50816.34;;;-146.02;63.17
57000;BME280;42891;50.006;21.964;2023-06-22T07:56:48;50820.34;;;-146.02;63.67
57000;BME280;42891;50.006;21.964;2023-06-22T08:00:48;50810.34;;;-146.02;63.01
57000;BME280;42891;50.006;21.964;2023-06-22T08:04:49;50848.41;;;-146.02;63.28
57000;BME280;42891;50.006;21.964;2023-06-22T08:08:49;50800.31;;;-146.02;62.58
57000;BME280;42891;50.006;21.964;2023-06-22T08:12:52;50818.34;;;-146.02;62.46
57000;BME280;42891;50.006;21.964;2023-06-22T08:16:53;50776.28;;;-146.02;64.04
57000;BME280;42891;50.006;21.964;2023-06-22T08:20:53;50794.31;;;-146.02;63.30
57000;BME280;42891;50.006;21.964;2023-06-22T08:24:54;50820.34;;;-146.02;64.17
57000;BME280;42891;50.006;21.964;2023-06-22T08:28:54;50804.31;;;-146.02;63.16
57000;BME280;42891;50.006;21.964;2023-06-22T08:32:54;50828.38;;;-146.02;63.29
57000;BME280;42891;50.006;21.964;2023-06-22T08:36:55;50798.31;;;-146.02;62.51
57000;BME280;42891;50.006;21.964;2023-06-22T08:40:55;50822.34;;;-146.02;63.20
57000;BME280;42891;50.006;21.964;2023-06-22T08:44:56;50784.28;;;-146.02;64.51
57000;BME280;42891;50.006;21.964;2023-06-22T08:48:56;50790.28;;;-146.02;62.82
57000;BME280;42891;50.006;21.964;2023-06-22T08:52:59;50826.38;;;-146.02;62.63
57000;BME280;42891;50.006;21.964;2023-06-22T08:57:01;50824.34;;;-146.02;62.34
57000;BME280;42891;50.006;21.964;2023-06-22T09:01:02;50854.41;;;-146.02;62.75
57000;BME280;42891;50.006;21.964;2023-06-22T09:05:03;50796.31;;;-146.02;64.12
57000;BME280;42891;50.006;21.964;2023-06-22T09:09:03;50780.28;;;-146.02;62.59
57000;BME280;42891;50.006;21.964;2023-06-22T09:13:04;50786.28;;;-146.02;62.86
57000;BME280;42891;50.006;21.964;2023-06-22T09:17:04;50774.28;;;-146.02;63.50
57000;BME280;42891;50.006;21.964;2023-06-22T09:21:05;50772.25;;;-146.02;62.94
57000;BME280;42891;50.006;21.964;2023-06-22T09:25:05;50764.25;;;-146.02;62.23
57000;BME280;42891;50.006;21.964;2023-06-22T09:29:06;50786.28;;;-146.02;59.69
57000;BME280;42891;50.006;21.964;2023-06-22T09:33:06;50772.25;;;-146.02;58.17
57000;BME280;42891;50.006;21.964;2023-06-22T09:37:07;50740.22;;;-146.02;57.78
57000;BME280;42891;50.006;21.964;2023-06-22T09:41:07;50758.25;;;-146.02;60.07
57000;BME280;42891;50.006;21.964;2023-06-22T09:45:08;50746.22;;;-146.02;58.04
57000;BME280;42891;50.006;21.964;2023-06-22T09:49:08;50782.28;;;-146.02;59.43
57000;BME280;42891;50.006;21.964;2023-06-22T09:53:08;50766.25;;;-146.02;58.90
57000;BME280;42891;50.006;21.964;2023-06-22T09:57:09;50762.25;;;-146.02;58.66
57000;BME280;42891;50.006;21.964;2023-06-22T10:01:09;50732.19;;;-146.02;57.09
57000;BME280;42891;50.006;21.964;2023-06-22T10:05:14;50754.22;;;-146.02;56.65
57000;BME280;42891;50.006;21.964;2023-06-22T10:09:15;50762.25;;;-146.02;56.85
57000;BME280;42891;50.006;21.964;2023-06-22T10:13:15;50746.22;;;-146.02;57.30
57000;BME280;42891;50.006;21.964;2023-06-22T10:17:15;50756.22;;;-146.02;55.93
57000;BME280;42891;50.006;21.964;2023-06-22T10:21:16;50772.25;;;-146.02;57.68
57000;BME280;42891;50.006;21.964;2023-06-22T10:25:16;50762.25;;;-146.02;58.14
57000;BME280;42891;50.006;21.964;2023-06-22T10:29:16;50736.19;;;-146.02;57.43
57000;BME280;42891;50.006;21.964;2023-06-22T10:33:17;50756.22;;;-146.02;59.04
57000;BME280;42891;50.006;21.964;2023-06-22T10:37:17;50738.19;;;-146.02;58.85
57000;BME280;42891;50.006;21.964;2023-06-22T10:41:18;50730.19;;;-146.02;58.55
57000;BME280;42891;50.006;21.964;2023-06-22T10:45:18;50762.25;;;-146.02;59.11
57000;BME280;42891;50.006;21.964;2023-06-22T10:49:18;50736.19;;;-146.02;56.40
57000;BME280;42891;50.006;21.964;2023-06-22T10:53:19;50720.16;;;-146.02;56.66
57000;BME280;42891;50.006;21.964;2023-06-22T10:57:21;50742.22;;;-146.02;57.26
57000;BME280;42891;50.006;21.964;2023-06-22T11:01:21;50720.16;;;-146.02;57.41
57000;BME280;42891;50.006;21.964;2023-06-22T11:05:22;50712.16;;;-146.02;56.58
57000;BME280;42891;50.006;21.964;2023-06-22T11:09:22;50706.16;;;-146.02;57.27
57000;BME280;42891;50.006;21.964;2023-06-22T11:13:22;50730.19;;;-146.02;56.21
57000;BME280;42891;50.006;21.964;2023-06-22T11:17:23;50710.16;;;-146.02;56.77
57000;BME280;42891;50.006;21.964;2023-06-22T11:21:23;50690.13;;;-146.02;53.88
57000;BME280;42891;50.006;21.964;2023-06-22T11:25:23;50716.16;;;-146.02;54.18
57000;BME280;42891;50.006;21.964;2023-06-22T11:29:24;50672.09;;;-146.02;54.92
57000;BME280;42891;50.006;21.964;2023-06-22T11:33:24;50708.16;;;-146.02;51.58
57000;BME280;42891;50.006;21.964;2023-06-22T11:37:24;50698.13;;;-146.02;52.34
57000;BME280;42891;50.006;21.964;2023-06-22T11:41:25;50712.16;;;-146.02;51.39
57000;BME280;42891;50.006;21.964;2023-06-22T11:45:25;50688.13;;;-146.02;54.17
57000;BME280;42891;50.006;21.964;2023-06-22T11:49:26;50676.09;;;-146.02;51.64
57000;BME280;42891;50.006;21.964;2023-06-22T11:53:26;50694.13;;;-146.02;52.20
57000;BME280;42891;50.006;21.964;2023-06-22T11:57:27;50668.06;;;-146.02;50.71
57000;BME280;42891;50.006;21.964;2023-06-22T12:01:27;50664.06;;;-146.02;50.23
57000;BME280;42891;50.006;21.964;2023-06-22T12:05:27;50690.13;;;-146.02;49.55
57000;BME280;42891;50.006;21.964;2023-06-22T12:09:28;50656.06;;;-146.02;50.29
57000;BME280;42891;50.006;21.964;2023-06-22T12:13:28;50668.06;;;-146.02;48.33
57000;BME280;42891;50.006;21.964;2023-06-22T12:17:32;50664.06;;;-146.02;49.40
57000;BME280;42891;50.006;21.964;2023-06-22T12:21:32;50678.09;;;-146.02;49.96
57000;BME280;42891;50.006;21.964;2023-06-22T12:25:32;50688.13;;;-146.02;49.51
57000;BME280;42891;50.006;21.964;2023-06-22T12:29:33;50660.06;;;-146.02;49.22
57000;BME280;42891;50.006;21.964;2023-06-22T12:33:33;50660.06;;;-146.02;48.27
57000;BME280;42891;50.006;21.964;2023-06-22T12:37:34;50686.09;;;-146.02;48.27
57000;BME280;42891;50.006;21.964;2023-06-22T12:41:34;50684.09;;;-146.02;52.22
57000;BME280;42891;50.006;21.964;2023-06-22T12:45:34;50698.13;;;-146.02;54.04
57000;BME280;42891;50.006;21.964;2023-06-22T12:49:35;50726.19;;;-146.02;59.10
57000;BME280;42891;50.006;21.964;2023-06-22T12:53:36;50696.13;;;-146.02;59.77
57000;BME280;42891;50.006;21.964;2023-06-22T12:57:36;50712.16;;;-146.02;61.52
57000;BME280;42891;50.006;21.964;2023-06-22T13:01:37;50706.16;;;-146.02;63.04
57000;BME280;42891;50.006;21.964;2023-06-22T13:05:37;50724.19;;;-146.02;65.31
57000;BME280;42891;50.006;21.964;2023-06-22T13:09:38;50712.16;;;-146.02;64.58
57000;BME280;42891;50.006;21.964;2023-06-22T13:13:39;50732.19;;;-146.02;67.00
57000;BME280;42891;50.006;21.964;2023-06-22T13:17:39;50722.19;;;-146.02;68.74
57000;BME280;42891;50.006;21.964;2023-06-22T13:21:39;50740.22;;;-146.02;69.19
57000;BME280;42891;50.006;21.964;2023-06-22T13:25:40;50786.28;;;-146.02;70.54
57000;BME280;42891;50.006;21.964;2023-06-22T13:29:40;50772.25;;;-146.02;70.47
57000;BME280;42891;50.006;21.964;2023-06-22T13:33:41;50736.19;;;-146.02;69.33
57000;BME280;42891;50.006;21.964;2023-06-22T13:37:41;50760.25;;;-146.02;69.55
57000;BME280;42891;50.006;21.964;2023-06-22T13:41:41;50756.22;;;-146.02;69.68
57000;BME280;42891;50.006;21.964;2023-06-22T13:45:43;50754.22;;;-146.02;65.12
57000;BME280;42891;50.006;21.964;2023-06-22T13:49:44;50758.25;;;-146.02;66.56
57000;BME280;42891;50.006;21.964;2023-06-22T13:53:44;50770.25;;;-146.02;67.52
57000;BME280;42891;50.006;21.964;2023-06-22T13:57:45;50740.22;;;-146.02;65.60
57000;BME280;42891;50.006;21.964;2023-06-22T14:01:45;50730.19;;;-146.02;67.12
57000;BME280;42891;50.006;21.964;2023-06-22T14:05:45;50728.19;;;-146.02;63.03
57000;BME280;42891;50.006;21.964;2023-06-22T14:09:46;50724.19;;;-146.02;63.86
57000;BME280;42891;50.006;21.964;2023-06-22T14:13:47;50718.16;;;-146.02;64.27
57000;BME280;42891;50.006;21.964;2023-06-22T14:17:47;50708.16;;;-146.02;61.67
57000;BME280;42891;50.006;21.964;2023-06-22T14:21:47;50708.16;;;-146.02;59.31
57000;BME280;42891;50.006;21.964;2023-06-22T14:25:48;50698.13;;;-146.02;58.45
57000;BME280;42891;50.006;21.964;2023-06-22T14:29:48;50722.19;;;-146.02;58.17
57000;BME280;42891;50.006;21.964;2023-06-22T14:33:49;50722.19;;;-146.02;57.87
57000;BME280;42891;50.006;21.964;2023-06-22T14:37:50;50702.13;;;-146.02;58.20
57000;BME280;42891;50.006;21.964;2023-06-22T14:41:50;50648.03;;;-146.02;57.84
57000;BME280;42891;50.006;21.964;2023-06-22T14:45:51;50658.06;;;-146.02;56.71
57000;BME280;42891;50.006;21.964;2023-06-22T14:49:51;50712.16;;;-146.02;53.55
57000;BME280;42891;50.006;21.964;2023-06-22T14:53:51;50694.13;;;-146.02;53.01
57000;BME280;42891;50.006;21.964;2023-06-22T14:57:51;50672.09;;;-146.02;52.48
57000;BME280;42891;50.006;21.964;2023-06-22T15:01:52;50670.09;;;-146.02;53.67
57000;BME280;42891;50.006;21.964;2023-06-22T15:05:52;50668.06;;;-146.02;52.72
57000;BME280;42891;50.006;21.964;2023-06-22T15:09:53;50690.13;;;-146.02;53.93
57000;BME280;42891;50.006;21.964;2023-06-22T15:13:57;50664.06;;;-146.02;53.02
57000;BME280;42891;50.006;21.964;2023-06-22T15:17:58;50702.13;;;-146.02;51.96
57000;BME280;42891;50.006;21.964;2023-06-22T15:21:58;50680.09;;;-146.02;52.38
57000;BME280;42891;50.006;21.964;2023-06-22T15:26:02;50636.03;;;-146.02;52.62
57000;BME280;42891;50.006;21.964;2023-06-22T15:30:02;50652.03;;;-146.02;52.20
57000;BME280;42891;50.006;21.964;2023-06-22T15:34:04;50660.06;;;-146.02;51.17
57000;BME280;42891;50.006;21.964;2023-06-22T15:38:04;50622.00;;;-146.02;50.60
57000;BME280;42891;50.006;21.964;2023-06-22T15:42:05;50615.97;;;-146.02;49.90
57000;BME280;42891;50.006;21.964;2023-06-22T15:46:05;50626.00;;;-146.02;49.06
57000;BME280;42891;50.006;21.964;2023-06-22T15:50:06;50607.97;;;-146.02;48.50
57000;BME280;42891;50.006;21.964;2023-06-22T15:54:06;50601.97;;;-146.02;47.67
57000;BME280;42891;50.006;21.964;2023-06-22T15:58:07;50563.88;;;-146.02;47.45
57000;BME280;42891;50.006;21.964;2023-06-22T16:02:09;50571.91;;;-146.02;47.95
57000;BME280;42891;50.006;21.964;2023-06-22T16:06:09;50579.91;;;-146.02;47.16
57000;BME280;42891;50.006;21.964;2023-06-22T16:10:10;50575.91;;;-146.02;48.64
57000;BME280;42891;50.006;21.964;2023-06-22T16:14:10;50567.91;;;-146.02;48.46
57000;BME280;42891;50.006;21.964;2023-06-22T16:18:11;50587.94;;;-146.02;47.63
57000;BME280;42891;50.006;21.964;2023-06-22T16:22:11;50607.97;;;-146.02;48.39
57000;BME280;42891;50.006;21.964;2023-06-22T16:26:12;50607.97;;;-146.02;47.88
57000;BME280;42891;50.006;21.964;2023-06-22T16:30:12;50626.00;;;-146.02;48.73
57000;BME280;42891;50.006;21.964;2023-06-22T16:34:13;50658.06;;;-146.02;49.06
57000;BME280;42891;50.006;21.964;2023-06-22T16:38:13;50650.03;;;-146.02;48.15
57000;BME280;42891;50.006;21.964;2023-06-22T16:42:13;50640.03;;;-146.02;49.03
57000;BME280;42891;50.006;21.964;2023-06-22T16:46:14;50628.00;;;-146.02;50.27
57000;BME280;42891;50.006;21.964;2023-06-22T16:50:15;50644.03;;;-146.02;49.10
57000;BME280;42891;50.006;21.964;2023-06-22T16:54:16;50672.09;;;-146.02;48.93
57000;BME280;42891;50.006;21.964;2023-06-22T16:58:19;50664.06;;;-146.02;49.51
57000;BME280;42891;50.006;21.964;2023-06-22T17:02:22;50662.06;;;-146.02;49.67
57000;BME280;42891;50.006;21.964;2023-06-22T17:06:23;50642.03;;;-146.02;49.82
57000;BME280;42891;50.006;21.964;2023-06-22T17:10:23;50672.09;;;-146.02;50.46
57000;BME280;42891;50.006;21.964;2023-06-22T17:14:24;50642.03;;;-146.02;50.62
57000;BME280;42891;50.006;21.964;2023-06-22T17:18:25;50642.03;;;-146.02;50.80
57000;BME280;42891;50.006;21.964;2023-06-22T17:22:26;50656.06;;;-146.02;51.08
57000;BME280;42891;50.006;21.964;2023-06-22T17:26:27;50698.13;;;-146.02;50.99
57000;BME280;42891;50.006;21.964;2023-06-22T17:30:28;50682.09;;;-146.02;51.57
57000;BME280;42891;50.006;21.964;2023-06-22T17:34:29;50632.00;;;-146.02;51.95
57000;BME280;42891;50.006;21.964;2023-06-22T17:38:30;50672.09;;;-146.02;52.09
57000;BME280;42891;50.006;21.964;2023-06-22T17:42:30;50692.13;;;-146.02;52.40
57000;BME280;42891;50.006;21.964;2023-06-22T17:46:35;50664.06;;;-146.02;52.48
57000;BME280;42891;50.006;21.964;2023-06-22T17:50:39;50684.09;;;-146.02;54.09
57000;BME280;42891;50.006;21.964;2023-06-22T17:54:40;50674.09;;;-146.02;54.30
57000;BME280;42891;50.006;21.964;2023-06-22T17:58:50;50708.16;;;-146.02;54.78
57000;BME280;42891;50.006;21.964;2023-06-22T18:02:50;50680.09;;;-146.02;54.49
57000;BME280;42891;50.006;21.964;2023-06-22T18:06:52;50684.09;;;-146.02;54.78
57000;BME280;42891;50.006;21.964;2023-06-22T18:10:56;50678.09;;;-146.02;55.99
57000;BME280;42891;50.006;21.964;2023-06-22T18:14:57;50732.19;;;-146.02;57.33
57000;BME280;42891;50.006;21.964;2023-06-22T18:19:00;50678.09;;;-146.02;58.37
57000;BME280;42891;50.006;21.964;2023-06-22T18:23:01;50674.09;;;-146.02;57.60
57000;BME280;42891;50.006;21.964;2023-06-22T18:27:03;50696.13;;;-146.02;57.85
57000;BME280;42891;50.006;21.964;2023-06-22T18:31:05;50694.13;;;-146.02;58.29
57000;BME280;42891;50.006;21.964;2023-06-22T18:35:07;50668.06;;;-146.02;58.81
57000;BME280;42891;50.006;21.964;2023-06-22T18:39:08;50728.19;;;-146.02;59.32
57000;BME280;42891;50.006;21.964;2023-06-22T18:43:10;50686.09;;;-146.02;59.27
57000;BME280;42891;50.006;21.964;2023-06-22T18:47:10;50692.13;;;-146.02;61.18
57000;BME280;42891;50.006;21.964;2023-06-22T18:51:11;50736.19;;;-146.02;60.64
57000;BME280;42891;50.006;21.964;2023-06-22T18:55:12;50698.13;;;-146.02;60.74
57000;BME280;42891;50.006;21.964;2023-06-22T18:59:13;50712.16;;;-146.02;62.49
57000;BME280;42891;50.006;21.964;2023-06-22T19:03:30;50770.25;;;-146.02;62.58
57000;BME280;42891;50.006;21.964;2023-06-22T19:12:18;50718.16;;;-146.02;64.72
57000;BME280;42891;50.006;21.964;2023-06-22T19:16:18;50724.19;;;-146.02;65.04
57000;BME280;42891;50.006;21.964;2023-06-22T19:20:32;50736.19;;;-146.02;65.08
57000;BME280;42891;50.006;21.964;2023-06-22T19:24:49;50708.16;;;-146.02;65.60
57000;BME280;42891;50.006;21.964;2023-06-22T19:28:54;50736.19;;;-146.02;66.03
57000;BME280;42891;50.006;21.964;2023-06-22T19:32:56;50728.19;;;-146.02;66.31
57000;BME280;42891;50.006;21.964;2023-06-22T19:36:59;50768.25;;;-146.02;66.85
57000;BME280;42891;50.006;21.964;2023-06-22T19:41:00;50760.25;;;-146.02;67.44
57000;BME280;42891;50.006;21.964;2023-06-22T19:45:01;50748.22;;;-146.02;67.60
57000;BME280;42891;50.006;21.964;2023-06-22T19:49:03;50742.22;;;-146.02;67.70
57000;BME280;42891;50.006;21.964;2023-06-22T19:53:06;50742.22;;;-146.02;68.05
57000;BME280;42891;50.006;21.964;2023-06-22T19:57:08;50766.25;;;-146.02;68.09
57000;BME280;42891;50.006;21.964;2023-06-22T20:01:09;50740.22;;;-146.02;68.19
57000;BME280;42891;50.006;21.964;2023-06-22T20:05:11;50766.25;;;-146.02;68.90
57000;BME280;42891;50.006;21.964;2023-06-22T20:09:12;50736.19;;;-146.02;69.93
57000;BME280;42891;50.006;21.964;2023-06-22T20:13:19;50782.28;;;-146.02;70.45
57000;BME280;42891;50.006;21.964;2023-06-22T20:17:22;50780.28;;;-146.02;70.11
57000;BME280;42891;50.006;21.964;2023-06-22T20:21:23;50832.38;;;-146.02;70.56
57000;BME280;42891;50.006;21.964;2023-06-22T20:25:24;50794.31;;;-146.02;70.36
57000;BME280;42891;50.006;21.964;2023-06-22T20:33:33;50778.28;;;-146.02;70.55
57000;BME280;42891;50.006;21.964;2023-06-22T20:37:34;50800.31;;;-146.02;71.07
57000;BME280;42891;50.006;21.964;2023-06-22T20:41:34;50772.25;;;-146.02;70.85